createdAt,value
2022-08-26T00:00:07.971Z,100.00
2022-08-26T00:03:00.987Z,100.00
2022-08-26T00:05:29.102Z,100.00
2022-08-26T00:07:57.468Z,100.00
2022-08-26T00:10:25.888Z,100.00
2022-08-26T00:12:53.871Z,100.00
2022-08-26T00:15:23.491Z,100.00
2022-08-26T00:17:53.804Z,100.00
2022-08-26T00:20:26.775Z,100.00
2022-08-26T00:22:55.101Z,100.00
2022-08-26T00:25:24.084Z,100.00
2022-08-26T00:27:52.288Z,100.00
2022-08-26T00:30:24.187Z,100.00
2022-08-26T00:32:56.148Z,100.00
2022-08-26T00:35:25.904Z,100.00
2022-08-26T00:37:57.271Z,100.00
2022-08-26T00:40:31.320Z,100.00
2022-08-26T00:43:00.794Z,100.00
2022-08-26T00:45:39.872Z,100.00
2022-08-26T00:48:09.881Z,100.00
2022-08-26T00:50:42.506Z,100.00
2022-08-26T00:53:24.066Z,100.00
2022-08-26T00:56:06.187Z,100.00
2022-08-26T00:58:38.826Z,100.00
2022-08-26T01:01:11.569Z,100.00
2022-08-26T01:03:42.002Z,100.00
2022-08-26T01:06:13.033Z,100.00
2022-08-26T01:08:41.469Z,100.00
2022-08-26T01:11:11.799Z,100.00
2022-08-26T01:13:40.423Z,100.00
2022-08-26T01:16:12.963Z,100.00
2022-08-26T01:18:43.385Z,100.00
2022-08-26T01:21:31.639Z,100.00
2022-08-26T01:23:59.916Z,100.00
2022-08-26T01:26:33.972Z,100.00
2022-08-26T01:29:05.524Z,100.00
2022-08-26T01:31:39.196Z,100.00
2022-08-26T01:34:11.213Z,100.00
2022-08-26T01:36:39.887Z,100.00
2022-08-26T01:39:09.014Z,100.00
2022-08-26T01:41:40.676Z,100.00
2022-08-26T01:44:19.580Z,100.00
2022-08-26T01:46:50.761Z,100.00
2022-08-26T01:49:21.065Z,100.00
2022-08-26T01:51:52.042Z,100.00
2022-08-26T01:54:21.084Z,100.00
2022-08-26T01:56:53.044Z,100.00
2022-08-26T01:59:23.891Z,100.00
2022-08-26T02:01:53.266Z,100.00
2022-08-26T02:04:31.028Z,100.00
2022-08-26T02:07:03.207Z,100.00
2022-08-26T02:09:31.826Z,100.00
2022-08-26T02:12:07.286Z,100.00
2022-08-26T02:14:44.022Z,100.00
2022-08-26T02:17:13.146Z,100.00
2022-08-26T02:19:46.567Z,100.00
2022-08-26T02:22:20.041Z,100.00
2022-08-26T02:24:56.037Z,100.00
2022-08-26T02:27:33.728Z,100.00
2022-08-26T02:30:15.141Z,100.00
2022-08-26T02:32:45.597Z,100.00
2022-08-26T02:35:20.102Z,100.00
2022-08-26T02:37:51.026Z,100.00
2022-08-26T02:40:25.592Z,100.00
2022-08-26T02:42:56.094Z,100.00
2022-08-26T02:45:28.127Z,100.00
2022-08-26T02:47:58.260Z,100.00
2022-08-26T02:50:27.839Z,100.00
2022-08-26T02:52:56.351Z,100.00
2022-08-26T02:55:24.772Z,100.00
2022-08-26T02:57:52.936Z,100.00
2022-08-26T03:00:21.154Z,100.00
2022-08-26T03:02:49.290Z,100.00
2022-08-26T03:05:19.827Z,100.00
2022-08-26T03:07:49.238Z,100.00
2022-08-26T03:10:17.634Z,100.00
2022-08-26T03:12:47.489Z,100.00
2022-08-26T03:15:18.707Z,100.00
2022-08-26T03:17:48.423Z,100.00
2022-08-26T03:20:18.651Z,100.00
2022-08-26T03:22:47.191Z,100.00
2022-08-26T03:25:17.448Z,100.00
2022-08-26T03:27:45.535Z,100.00
2022-08-26T03:30:33.270Z,100.00
2022-08-26T03:33:01.643Z,100.00
2022-08-26T03:35:32.346Z,100.00
2022-08-26T03:38:01.859Z,100.00
2022-08-26T03:40:29.969Z,100.00
2022-08-26T03:42:57.951Z,100.00
2022-08-26T03:45:26.188Z,100.00
2022-08-26T03:47:55.092Z,100.00
2022-08-26T03:50:26.248Z,100.00
2022-08-26T03:52:56.314Z,100.00
2022-08-26T03:55:27.517Z,100.00
2022-08-26T03:57:55.752Z,100.00
2022-08-26T04:00:24.388Z,100.00
2022-08-26T04:02:53.428Z,100.00
2022-08-26T04:05:23.336Z,100.00
2022-08-26T04:07:52.419Z,100.00
2022-08-26T04:10:28.735Z,100.00
2022-08-26T04:12:59.727Z,100.00
2022-08-26T04:15:28.293Z,100.00
2022-08-26T04:17:57.495Z,100.00
2022-08-26T04:20:26.913Z,100.00
2022-08-26T04:22:55.111Z,100.00
2022-08-26T04:25:24.201Z,100.00
2022-08-26T04:27:52.561Z,100.00
2022-08-26T04:30:21.374Z,100.00
2022-08-26T04:32:49.970Z,100.00
2022-08-26T04:35:17.964Z,100.00
2022-08-26T04:37:46.142Z,100.00
2022-08-26T04:40:14.214Z,100.00
2022-08-26T04:42:42.205Z,100.00
2022-08-26T04:45:11.809Z,100.00
2022-08-26T04:47:40.646Z,100.00
2022-08-26T04:50:09.256Z,100.00
2022-08-26T04:52:39.226Z,100.00
2022-08-26T04:55:08.521Z,100.00
2022-08-26T04:57:36.960Z,100.00
2022-08-26T05:00:08.105Z,100.00
2022-08-26T05:02:36.538Z,100.00
2022-08-26T05:05:05.902Z,100.00
2022-08-26T05:07:35.480Z,100.00
2022-08-26T05:10:08.709Z,100.00
2022-08-26T05:12:37.111Z,100.00
2022-08-26T05:15:07.064Z,100.00
2022-08-26T05:17:35.191Z,100.00
2022-08-26T05:20:05.240Z,100.00
2022-08-26T05:22:37.688Z,100.00
2022-08-26T05:25:06.285Z,100.00
2022-08-26T05:27:34.390Z,100.00
2022-08-26T05:30:02.751Z,100.00
2022-08-26T05:32:32.254Z,100.00
2022-08-26T05:35:00.417Z,100.00
2022-08-26T05:37:28.806Z,100.00
2022-08-26T05:39:57.671Z,100.00
2022-08-26T05:42:26.128Z,100.00
2022-08-26T05:44:56.031Z,100.00
2022-08-26T05:47:26.518Z,100.00
2022-08-26T05:49:55.883Z,100.00
2022-08-26T05:52:24.649Z,100.00
2022-08-26T05:54:54.482Z,100.00
2022-08-26T05:57:23.112Z,100.00
2022-08-26T05:59:51.935Z,100.00
2022-08-26T06:02:20.963Z,100.00
2022-08-26T06:04:49.118Z,100.00
2022-08-26T06:07:17.316Z,100.00
2022-08-26T06:09:46.668Z,100.00
2022-08-26T06:12:15.917Z,100.00
2022-08-26T06:14:46.716Z,100.00
2022-08-26T06:17:17.157Z,100.00
2022-08-26T06:19:45.983Z,100.00
2022-08-26T06:22:34.360Z,100.00
2022-08-26T06:25:20.785Z,100.00
2022-08-26T06:27:49.051Z,100.00
2022-08-26T06:30:17.579Z,100.00
2022-08-26T06:32:49.432Z,100.00
2022-08-26T06:35:17.569Z,100.00
2022-08-26T06:37:46.686Z,100.00
2022-08-26T06:40:14.842Z,100.00
2022-08-26T06:42:43.959Z,100.00
2022-08-26T06:45:12.186Z,100.00
2022-08-26T06:47:40.410Z,99.88
2022-08-26T06:50:08.878Z,99.38
2022-08-26T06:52:37.062Z,99.81
2022-08-26T06:55:05.821Z,94.23
2022-08-26T06:57:34.813Z,86.39
2022-08-26T07:00:13.540Z,84.53
2022-08-26T07:02:46.872Z,90.08
2022-08-26T07:05:15.590Z,97.18
2022-08-26T07:07:44.298Z,97.48
2022-08-26T07:10:12.596Z,96.36
2022-08-26T07:12:40.831Z,96.46
2022-08-26T07:15:10.438Z,88.72
2022-08-26T07:17:38.729Z,87.47
2022-08-26T07:20:10.182Z,86.81
2022-08-26T07:22:39.410Z,95.13
2022-08-26T07:25:09.343Z,93.05
2022-08-26T07:27:38.870Z,87.42
2022-08-26T07:30:07.946Z,90.91
2022-08-26T07:32:37.843Z,84.78
2022-08-26T07:35:06.756Z,83.37
2022-08-26T07:37:39.350Z,79.01
2022-08-26T07:40:09.247Z,77.11
2022-08-26T07:42:37.632Z,85.51
2022-08-26T07:45:06.767Z,81.15
2022-08-26T07:47:35.485Z,75.74
2022-08-26T07:50:04.064Z,72.63
2022-08-26T07:52:34.298Z,77.25
2022-08-26T07:55:02.746Z,74.12
2022-08-26T07:57:30.909Z,72.10
2022-08-26T07:59:59.827Z,73.96
2022-08-26T08:02:29.634Z,82.42
2022-08-26T08:04:58.523Z,73.21
2022-08-26T08:07:44.444Z,71.47
2022-08-26T08:10:17.451Z,68.32
2022-08-26T08:12:47.174Z,59.97
2022-08-26T08:15:17.563Z,61.84
2022-08-26T08:17:46.025Z,59.92
2022-08-26T08:20:15.104Z,59.99
2022-08-26T08:22:43.698Z,62.85
2022-08-26T08:25:12.815Z,62.49
2022-08-26T08:27:43.427Z,61.99
2022-08-26T08:30:14.066Z,61.50
2022-08-26T08:32:45.968Z,54.98
2022-08-26T08:35:17.768Z,56.02
2022-08-26T08:37:46.301Z,55.53
2022-08-26T08:40:18.510Z,55.75
2022-08-26T08:43:04.538Z,57.63
2022-08-26T08:45:50.875Z,58.09
2022-08-26T08:48:19.052Z,57.07
2022-08-26T08:50:54.691Z,55.63
2022-08-26T08:53:43.161Z,58.58
2022-08-26T08:56:46.463Z,55.86
2022-08-26T08:59:28.151Z,58.14
2022-08-26T09:02:18.452Z,58.42
2022-08-26T09:05:03.249Z,61.14
2022-08-26T09:07:37.524Z,63.75
2022-08-26T09:10:32.531Z,65.47
2022-08-26T09:13:04.014Z,63.16
2022-08-26T09:15:47.994Z,61.76
2022-08-26T09:18:38.871Z,62.45
2022-08-26T09:21:10.532Z,62.45
2022-08-26T09:23:41.909Z,62.40
2022-08-26T09:26:30.652Z,59.89
2022-08-26T09:29:05.894Z,58.92
2022-08-26T09:31:42.696Z,60.20
2022-08-26T09:34:10.829Z,61.06
2022-08-26T09:36:44.245Z,61.55
2022-08-26T09:39:25.700Z,59.76
2022-08-26T09:42:25.753Z,60.31
2022-08-26T09:44:59.595Z,64.03
2022-08-26T09:47:34.170Z,59.89
2022-08-26T09:50:31.312Z,55.85
2022-08-26T09:53:21.011Z,52.86
2022-08-26T09:56:11.475Z,52.96
2022-08-26T09:58:43.131Z,52.74
2022-08-26T10:01:42.257Z,51.93
2022-08-26T10:04:21.421Z,51.14
2022-08-26T10:07:01.903Z,52.57
2022-08-26T10:09:35.789Z,50.41
2022-08-26T10:12:12.216Z,52.11
2022-08-26T10:14:48.309Z,52.51
2022-08-26T10:17:31.791Z,48.53
2022-08-26T10:20:22.443Z,46.32
2022-08-26T10:23:10.192Z,48.56
2022-08-26T10:25:49.297Z,49.03
2022-08-26T10:28:21.726Z,50.34
2022-08-26T10:30:59.973Z,48.95
2022-08-26T10:33:28.668Z,49.04
2022-08-26T10:36:03.983Z,49.11
2022-08-26T10:38:38.893Z,48.84
2022-08-26T10:41:21.045Z,49.29
2022-08-26T10:43:56.584Z,49.01
2022-08-26T10:46:33.570Z,48.98
2022-08-26T10:49:06.636Z,46.91
2022-08-26T10:51:45.620Z,47.62
2022-08-26T10:54:27.497Z,48.70
2022-08-26T10:57:21.711Z,48.95
2022-08-26T11:00:51.862Z,49.40
2022-08-26T11:03:42.076Z,47.34
2022-08-26T11:06:19.058Z,46.20
2022-08-26T11:08:47.765Z,47.39
2022-08-26T11:11:40.563Z,45.93
2022-08-26T11:14:29.278Z,44.74
2022-08-26T11:17:00.243Z,46.10
2022-08-26T11:19:59.535Z,46.48
2022-08-26T11:22:35.013Z,45.21
2022-08-26T11:25:11.602Z,43.09
2022-08-26T11:27:40.394Z,43.96
2022-08-26T11:30:08.707Z,45.17
2022-08-26T11:32:39.314Z,45.75
2022-08-26T11:35:12.656Z,45.90
2022-08-26T11:37:41.297Z,45.13
2022-08-26T11:40:14.917Z,44.97
2022-08-26T11:42:55.727Z,44.06
2022-08-26T11:45:38.643Z,44.83
2022-08-26T11:48:32.772Z,43.23
2022-08-26T11:51:24.773Z,41.98
2022-08-26T11:54:09.429Z,43.51
2022-08-26T11:56:39.653Z,46.20
2022-08-26T11:59:12.546Z,43.69
2022-08-26T12:01:42.997Z,46.15
2022-08-26T12:04:22.523Z,45.32
2022-08-26T12:06:52.194Z,43.97
2022-08-26T12:09:23.012Z,45.42
2022-08-26T12:11:51.101Z,39.35
2022-08-26T12:14:24.541Z,40.78
2022-08-26T12:16:54.342Z,42.42
2022-08-26T12:19:27.497Z,41.78
2022-08-26T12:21:59.409Z,39.22
2022-08-26T12:24:27.570Z,37.98
2022-08-26T12:27:14.227Z,38.90
2022-08-26T12:29:43.324Z,40.59
2022-08-26T12:32:18.512Z,40.99
2022-08-26T12:34:49.172Z,38.92
2022-08-26T12:37:18.805Z,38.95
2022-08-26T12:39:49.362Z,39.74
2022-08-26T12:42:17.587Z,40.94
2022-08-26T12:44:53.490Z,41.09
2022-08-26T12:47:23.404Z,39.34
2022-08-26T12:50:20.758Z,39.06
2022-08-26T12:52:55.996Z,37.71
2022-08-26T12:55:25.712Z,36.94
2022-08-26T12:58:10.855Z,37.57
2022-08-26T13:00:41.061Z,38.63
2022-08-26T13:03:27.826Z,37.38
2022-08-26T13:06:09.259Z,37.99
2022-08-26T13:08:47.764Z,39.59
2022-08-26T13:11:28.119Z,38.19
2022-08-26T13:13:58.076Z,38.59
2022-08-26T13:16:27.010Z,38.90
2022-08-26T13:19:00.071Z,37.23
2022-08-26T13:21:30.146Z,36.61
2022-08-26T13:24:08.245Z,37.12
2022-08-26T13:26:36.266Z,38.44
2022-08-26T13:29:09.597Z,37.56
2022-08-26T13:31:39.926Z,37.86
2022-08-26T13:34:08.873Z,38.63
2022-08-26T13:36:37.204Z,36.80
2022-08-26T13:39:06.281Z,36.15
2022-08-26T13:41:34.325Z,36.11
2022-08-26T13:44:02.374Z,36.43
2022-08-26T13:46:30.511Z,36.92
2022-08-26T13:48:58.758Z,36.35
2022-08-26T13:51:27.829Z,36.75
2022-08-26T13:53:56.160Z,37.48
2022-08-26T13:56:27.464Z,37.35
2022-08-26T13:58:56.800Z,36.50
2022-08-26T14:01:24.912Z,37.70
2022-08-26T14:03:53.071Z,37.92
2022-08-26T14:06:21.298Z,36.47
2022-08-26T14:08:49.657Z,36.82
2022-08-26T14:11:18.449Z,36.23
2022-08-26T14:13:46.455Z,35.64
2022-08-26T14:16:22.202Z,35.88
2022-08-26T14:18:51.058Z,36.03
2022-08-26T14:21:19.251Z,35.51
2022-08-26T14:23:47.248Z,35.45
2022-08-26T14:26:28.514Z,35.65
2022-08-26T14:28:59.857Z,35.07
2022-08-26T14:31:29.612Z,34.21
2022-08-26T14:34:00.425Z,34.10
2022-08-26T14:36:28.464Z,33.94
2022-08-26T14:38:58.364Z,34.14
2022-08-26T14:41:27.510Z,34.83
2022-08-26T14:44:06.837Z,34.82
2022-08-26T14:46:39.042Z,35.53
2022-08-26T14:49:10.386Z,35.36
2022-08-26T14:51:39.507Z,34.23
2022-08-26T14:54:12.125Z,34.02
2022-08-26T14:56:54.308Z,35.02
2022-08-26T14:59:26.839Z,35.41
2022-08-26T15:01:55.559Z,34.61
2022-08-26T15:04:24.393Z,34.98
2022-08-26T15:06:53.760Z,36.02
2022-08-26T15:09:22.333Z,36.16
2022-08-26T15:11:50.649Z,35.89
2022-08-26T15:14:20.136Z,36.05
2022-08-26T15:16:49.705Z,36.33
2022-08-26T15:19:18.254Z,36.96
2022-08-26T15:21:47.536Z,37.31
2022-08-26T15:24:17.422Z,37.55
2022-08-26T15:26:45.977Z,37.31
2022-08-26T15:29:13.900Z,36.53
2022-08-26T15:31:43.335Z,36.96
2022-08-26T15:34:16.511Z,37.23
2022-08-26T15:36:46.496Z,36.86
2022-08-26T15:39:15.811Z,36.25
2022-08-26T15:41:44.051Z,36.78
2022-08-26T15:44:12.579Z,37.32
2022-08-26T15:46:40.900Z,38.47
2022-08-26T15:49:08.917Z,38.31
2022-08-26T15:51:47.174Z,37.62
2022-08-26T15:54:16.864Z,37.50
2022-08-26T15:56:45.755Z,37.88
2022-08-26T15:59:16.768Z,38.10
2022-08-26T16:01:44.877Z,39.27
2022-08-26T16:04:14.191Z,39.83
2022-08-26T16:06:43.595Z,40.45
2022-08-26T16:09:11.682Z,40.88
2022-08-26T16:11:43.075Z,40.67
2022-08-26T16:14:10.989Z,41.79
2022-08-26T16:16:40.042Z,40.97
2022-08-26T16:19:08.409Z,41.11
2022-08-26T16:21:36.538Z,42.23
2022-08-26T16:24:05.289Z,42.96
2022-08-26T16:26:36.504Z,42.33
2022-08-26T16:29:09.245Z,42.96
2022-08-26T16:31:38.499Z,43.01
2022-08-26T16:34:07.132Z,44.00
2022-08-26T16:36:36.137Z,45.09
2022-08-26T16:39:05.114Z,45.89
2022-08-26T16:41:33.237Z,46.82
2022-08-26T16:44:01.497Z,47.47
2022-08-26T16:46:29.595Z,47.63
2022-08-26T16:48:58.682Z,48.78
2022-08-26T16:51:28.044Z,50.26
2022-08-26T16:53:57.117Z,51.53
2022-08-26T16:56:34.063Z,53.14
2022-08-26T16:59:04.400Z,53.22
2022-08-26T17:01:32.730Z,52.82
2022-08-26T17:04:00.981Z,53.36
2022-08-26T17:06:30.071Z,54.19
2022-08-26T17:08:58.205Z,55.57
2022-08-26T17:11:26.257Z,58.93
2022-08-26T17:13:54.420Z,61.86
2022-08-26T17:16:26.674Z,66.95
2022-08-26T17:18:56.503Z,68.99
2022-08-26T17:21:25.039Z,74.42
2022-08-26T17:23:53.181Z,77.45
2022-08-26T17:26:21.395Z,86.56
2022-08-26T17:28:50.178Z,86.86
2022-08-26T17:31:18.875Z,89.99
2022-08-26T17:33:53.175Z,97.64
2022-08-26T17:36:27.868Z,100.00
2022-08-26T17:38:57.318Z,100.00
2022-08-26T17:41:26.021Z,100.00
2022-08-26T17:43:53.983Z,100.00
2022-08-26T17:46:22.189Z,100.00
2022-08-26T17:48:50.532Z,100.00
2022-08-26T17:51:19.574Z,100.00
2022-08-26T17:53:48.785Z,100.00
2022-08-26T17:56:18.789Z,100.00
2022-08-26T17:58:51.148Z,100.00
2022-08-26T18:01:20.637Z,100.00
2022-08-26T18:03:48.990Z,100.00
2022-08-26T18:06:16.890Z,100.00
2022-08-26T18:08:45.264Z,100.00
2022-08-26T18:11:15.661Z,100.00
2022-08-26T18:13:47.077Z,100.00
2022-08-26T18:16:16.374Z,100.00
2022-08-26T18:18:44.744Z,100.00
2022-08-26T18:21:17.444Z,100.00
2022-08-26T18:23:46.271Z,100.00
2022-08-26T18:26:19.297Z,100.00
2022-08-26T18:28:47.373Z,100.00
2022-08-26T18:31:15.458Z,100.00
2022-08-26T18:33:43.482Z,100.00
2022-08-26T18:36:15.642Z,100.00
2022-08-26T18:38:43.474Z,100.00
2022-08-26T18:41:11.424Z,100.00
2022-08-26T18:43:39.251Z,100.00
2022-08-26T18:46:08.235Z,100.00
2022-08-26T18:48:37.179Z,100.00
2022-08-26T18:51:05.536Z,100.00
2022-08-26T18:53:34.127Z,100.00
2022-08-26T18:56:02.421Z,100.00
2022-08-26T18:58:30.356Z,100.00
2022-08-26T19:00:58.695Z,100.00
2022-08-26T19:03:28.883Z,100.00
2022-08-26T19:05:57.096Z,100.00
2022-08-26T19:08:25.254Z,100.00
2022-08-26T19:10:53.375Z,100.00
2022-08-26T19:13:21.510Z,100.00
2022-08-26T19:15:49.786Z,100.00
2022-08-26T19:18:18.032Z,100.00
2022-08-26T19:20:46.841Z,100.00
2022-08-26T19:23:30.834Z,100.00
2022-08-26T19:25:59.554Z,100.00
2022-08-26T19:28:27.429Z,100.00
2022-08-26T19:30:55.342Z,100.00
2022-08-26T19:33:23.402Z,100.00
2022-08-26T19:35:52.131Z,100.00
2022-08-26T19:38:20.179Z,100.00
2022-08-26T19:40:48.324Z,100.00
2022-08-26T19:43:16.205Z,100.00
2022-08-26T19:45:45.080Z,100.00
2022-08-26T19:48:12.950Z,100.00
2022-08-26T19:50:42.484Z,100.00
2022-08-26T19:53:10.345Z,100.00
2022-08-26T19:55:38.204Z,100.00
2022-08-26T19:58:06.705Z,100.00
2022-08-26T20:00:36.873Z,100.00
2022-08-26T20:03:04.947Z,100.00
2022-08-26T20:05:32.914Z,100.00
2022-08-26T20:08:00.856Z,100.00
2022-08-26T20:10:29.051Z,100.00
2022-08-26T20:12:57.197Z,100.00
2022-08-26T20:15:25.195Z,100.00
2022-08-26T20:17:56.436Z,100.00
2022-08-26T20:20:43.049Z,100.00
2022-08-26T20:23:11.003Z,100.00
2022-08-26T20:25:38.893Z,100.00
2022-08-26T20:28:06.917Z,100.00
2022-08-26T20:30:34.916Z,100.00
2022-08-26T20:33:02.887Z,100.00
2022-08-26T20:35:30.890Z,100.00
2022-08-26T20:37:59.128Z,100.00
2022-08-26T20:40:27.125Z,100.00
2022-08-26T20:42:55.113Z,100.00
2022-08-26T20:45:22.997Z,100.00
2022-08-26T20:47:50.936Z,100.00
2022-08-26T20:50:19.050Z,100.00
2022-08-26T20:52:46.884Z,100.00
2022-08-26T20:55:15.386Z,100.00
2022-08-26T20:57:43.911Z,100.00
2022-08-26T21:00:13.661Z,100.00
2022-08-26T21:02:42.358Z,100.00
2022-08-26T21:05:10.840Z,100.00
2022-08-26T21:07:39.616Z,100.00
2022-08-26T21:10:07.675Z,100.00
2022-08-26T21:12:36.347Z,100.00
2022-08-26T21:15:05.029Z,100.00
2022-08-26T21:17:33.135Z,100.00
2022-08-26T21:20:01.094Z,100.00
2022-08-26T21:22:29.819Z,100.00
2022-08-26T21:24:57.742Z,100.00
2022-08-26T21:27:26.240Z,100.00
2022-08-26T21:29:54.617Z,100.00
2022-08-26T21:32:22.597Z,100.00
2022-08-26T21:34:54.452Z,100.00
2022-08-26T21:37:22.409Z,100.00
2022-08-26T21:39:53.015Z,100.00
2022-08-26T21:42:21.371Z,100.00
2022-08-26T21:44:52.952Z,100.00
2022-08-26T21:47:21.356Z,100.00
2022-08-26T21:49:49.248Z,100.00
2022-08-26T21:52:17.443Z,100.00
2022-08-26T21:54:49.357Z,100.00
2022-08-26T21:57:18.499Z,100.00
2022-08-26T21:59:46.473Z,100.00
2022-08-26T22:02:15.139Z,100.00
2022-08-26T22:04:48.109Z,100.00
2022-08-26T22:07:18.226Z,100.00
2022-08-26T22:09:46.602Z,100.00
2022-08-26T22:12:15.162Z,100.00
2022-08-26T22:14:43.575Z,100.00
2022-08-26T22:17:11.779Z,100.00
2022-08-26T22:19:46.248Z,100.00
2022-08-26T22:22:15.156Z,100.00
2022-08-26T22:24:43.805Z,100.00
2022-08-26T22:27:12.279Z,100.00
2022-08-26T22:29:40.692Z,100.00
2022-08-26T22:32:08.630Z,100.00
2022-08-26T22:34:36.796Z,100.00
2022-08-26T22:37:04.899Z,100.00
2022-08-26T22:39:32.847Z,100.00
2022-08-26T22:42:00.775Z,100.00
2022-08-26T22:44:28.743Z,100.00
2022-08-26T22:46:57.154Z,100.00
2022-08-26T22:49:25.213Z,100.00
2022-08-26T22:51:53.141Z,100.00
2022-08-26T22:54:21.217Z,100.00
2022-08-26T22:56:49.171Z,100.00
2022-08-26T22:59:17.202Z,100.00
2022-08-26T23:01:47.061Z,100.00
2022-08-26T23:04:15.133Z,100.00
2022-08-26T23:06:47.339Z,100.00
2022-08-26T23:09:18.529Z,100.00
2022-08-26T23:11:47.658Z,100.00
2022-08-26T23:14:17.093Z,100.00
2022-08-26T23:16:45.069Z,100.00
2022-08-26T23:19:14.165Z,100.00
2022-08-26T23:21:42.069Z,100.00
2022-08-26T23:24:10.172Z,100.00
2022-08-26T23:26:39.180Z,100.00
2022-08-26T23:29:08.469Z,100.00
2022-08-26T23:31:37.095Z,100.00
2022-08-26T23:34:23.701Z,100.00
2022-08-26T23:36:52.819Z,100.00
2022-08-26T23:39:21.881Z,100.00
2022-08-26T23:41:49.736Z,100.00
2022-08-26T23:44:18.208Z,100.00
2022-08-26T23:46:46.101Z,100.00
2022-08-26T23:49:14.000Z,100.00
2022-08-26T23:52:00.349Z,100.00
2022-08-26T23:54:28.345Z,100.00
2022-08-26T23:56:56.167Z,100.00
2022-08-26T23:59:24.165Z,100.00
